sensor_id;sensor_type;location;lat;lon;timestamp;P1;durP1;ratioP1;P2;durP2;ratioP2
12519;SDS011;6325;49.540;8.364;2023-07-13T00:00:36;1.17;;;1.00;;
12519;SDS011;6325;49.540;8.364;2023-07-13T00:03:03;0.90;;;0.90;;
12519;SDS011;6325;49.540;8.364;2023-07-13T00:05:30;1.58;;;0.90;;
12519;SDS011;6325;49.540;8.364;2023-07-13T00:07:58;1.10;;;1.00;;
12519;SDS011;6325;49.540;8.364;2023-07-13T00:10:26;1.05;;;0.95;;
12519;SDS011;6325;49.540;8.364;2023-07-13T00:12:53;1.90;;;1.00;;
12519;SDS011;6325;49.540;8.364;2023-07-13T00:15:25;1.20;;;0.80;;
12519;SDS011;6325;49.540;8.364;2023-07-13T00:17:55;1.00;;;0.90;;
12519;SDS011;6325;49.540;8.364;2023-07-13T00:20:23;1.20;;;1.10;;
12519;SDS011;6325;49.540;8.364;2023-07-13T00:22:50;1.20;;;1.10;;
12519;SDS011;6325;49.540;8.364;2023-07-13T00:25:18;1.10;;;1.00;;
12519;SDS011;6325;49.540;8.364;2023-07-13T00:27:48;0.80;;;0.80;;
12519;SDS011;6325;49.540;8.364;2023-07-13T00:30:15;1.40;;;0.95;;
12519;SDS011;6325;49.540;8.364;2023-07-13T00:32:42;1.20;;;1.10;;
12519;SDS011;6325;49.540;8.364;2023-07-13T00:35:10;1.05;;;1.00;;
12519;SDS011;6325;49.540;8.364;2023-07-13T00:37:37;1.03;;;1.00;;
12519;SDS011;6325;49.540;8.364;2023-07-13T00:40:04;1.15;;;1.10;;
12519;SDS011;6325;49.540;8.364;2023-07-13T00:42:33;0.90;;;0.90;;
12519;SDS011;6325;49.540;8.364;2023-07-13T00:45:02;3.83;;;3.00;;
12519;SDS011;6325;49.540;8.364;2023-07-13T00:47:29;2.03;;;1.63;;
12519;SDS011;6325;49.540;8.364;2023-07-13T00:49:56;1.00;;;1.00;;
12519;SDS011;6325;49.540;8.364;2023-07-13T00:52:24;0.95;;;0.95;;
12519;SDS011;6325;49.540;8.364;2023-07-13T00:54:51;1.33;;;1.00;;
12519;SDS011;6325;49.540;8.364;2023-07-13T00:57:19;0.90;;;0.90;;
12519;SDS011;6325;49.540;8.364;2023-07-13T00:59:47;0.90;;;0.90;;
12519;SDS011;6325;49.540;8.364;2023-07-13T01:02:17;0.90;;;0.90;;
12519;SDS011;6325;49.540;8.364;2023-07-13T01:04:44;1.13;;;1.10;;
12519;SDS011;6325;49.540;8.364;2023-07-13T01:07:11;1.30;;;1.20;;
12519;SDS011;6325;49.540;8.364;2023-07-13T01:09:40;2.73;;;2.00;;
12519;SDS011;6325;49.540;8.364;2023-07-13T01:12:07;2.90;;;2.50;;
12519;SDS011;6325;49.540;8.364;2023-07-13T01:14:35;3.33;;;2.80;;
12519;SDS011;6325;49.540;8.364;2023-07-13T01:17:02;3.95;;;3.10;;
12519;SDS011;6325;49.540;8.364;2023-07-13T01:19:33;7.00;;;5.10;;
12519;SDS011;6325;49.540;8.364;2023-07-13T01:22:04;7.47;;;4.70;;
12519;SDS011;6325;49.540;8.364;2023-07-13T01:24:33;5.78;;;4.40;;
12519;SDS011;6325;49.540;8.364;2023-07-13T01:27:01;9.18;;;6.28;;
12519;SDS011;6325;49.540;8.364;2023-07-13T01:29:28;10.23;;;7.03;;
12519;SDS011;6325;49.540;8.364;2023-07-13T01:31:55;14.27;;;9.15;;
12519;SDS011;6325;49.540;8.364;2023-07-13T01:34:22;10.65;;;6.85;;
12519;SDS011;6325;49.540;8.364;2023-07-13T01:36:49;6.75;;;5.00;;
12519;SDS011;6325;49.540;8.364;2023-07-13T01:39:20;6.22;;;4.55;;
12519;SDS011;6325;49.540;8.364;2023-07-13T01:41:47;5.53;;;4.00;;
12519;SDS011;6325;49.540;8.364;2023-07-13T01:44:14;6.72;;;4.85;;
12519;SDS011;6325;49.540;8.364;2023-07-13T01:46:41;6.82;;;5.00;;
12519;SDS011;6325;49.540;8.364;2023-07-13T01:49:09;6.35;;;4.68;;
12519;SDS011;6325;49.540;8.364;2023-07-13T01:51:36;3.88;;;3.10;;
12519;SDS011;6325;49.540;8.364;2023-07-13T01:54:03;1.85;;;1.60;;
12519;SDS011;6325;49.540;8.364;2023-07-13T01:56:32;1.42;;;1.33;;
12519;SDS011;6325;49.540;8.364;2023-07-13T01:58:59;1.55;;;1.40;;
12519;SDS011;6325;49.540;8.364;2023-07-13T02:01:26;5.50;;;3.80;;
12519;SDS011;6325;49.540;8.364;2023-07-13T02:03:53;2.45;;;2.22;;
12519;SDS011;6325;49.540;8.364;2023-07-13T02:06:20;1.60;;;1.30;;
12519;SDS011;6325;49.540;8.364;2023-07-13T02:08:47;1.73;;;1.30;;
12519;SDS011;6325;49.540;8.364;2023-07-13T02:11:14;1.70;;;1.60;;
12519;SDS011;6325;49.540;8.364;2023-07-13T02:13:43;1.33;;;1.23;;
12519;SDS011;6325;49.540;8.364;2023-07-13T02:16:10;1.30;;;1.20;;
12519;SDS011;6325;49.540;8.364;2023-07-13T02:18:38;1.00;;;1.00;;
12519;SDS011;6325;49.540;8.364;2023-07-13T02:21:05;1.20;;;1.10;;
12519;SDS011;6325;49.540;8.364;2023-07-13T02:23:33;1.10;;;1.10;;
12519;SDS011;6325;49.540;8.364;2023-07-13T02:26:01;1.00;;;1.00;;
12519;SDS011;6325;49.540;8.364;2023-07-13T02:28:29;1.58;;;1.20;;
12519;SDS011;6325;49.540;8.364;2023-07-13T02:31:03;1.00;;;1.00;;
12519;SDS011;6325;49.540;8.364;2023-07-13T02:33:30;1.17;;;1.10;;
12519;SDS011;6325;49.540;8.364;2023-07-13T02:35:57;1.30;;;1.20;;
12519;SDS011;6325;49.540;8.364;2023-07-13T02:38:24;1.33;;;1.23;;
12519;SDS011;6325;49.540;8.364;2023-07-13T02:40:52;1.00;;;1.00;;
12519;SDS011;6325;49.540;8.364;2023-07-13T02:43:19;1.10;;;1.10;;
12519;SDS011;6325;49.540;8.364;2023-07-13T02:45:46;1.10;;;1.10;;
12519;SDS011;6325;49.540;8.364;2023-07-13T02:48:15;1.20;;;1.10;;
12519;SDS011;6325;49.540;8.364;2023-07-13T02:50:43;2.22;;;2.00;;
12519;SDS011;6325;49.540;8.364;2023-07-13T02:53:11;1.50;;;1.40;;
12519;SDS011;6325;49.540;8.364;2023-07-13T02:55:38;1.38;;;1.27;;
12519;SDS011;6325;49.540;8.364;2023-07-13T02:58:05;1.25;;;1.15;;
12519;SDS011;6325;49.540;8.364;2023-07-13T03:00:33;1.20;;;1.10;;
12519;SDS011;6325;49.540;8.364;2023-07-13T03:03:00;1.13;;;1.13;;
12519;SDS011;6325;49.540;8.364;2023-07-13T03:05:28;1.58;;;1.50;;
12519;SDS011;6325;49.540;8.364;2023-07-13T03:07:56;1.10;;;1.10;;
12519;SDS011;6325;49.540;8.364;2023-07-13T03:10:23;1.20;;;1.20;;
12519;SDS011;6325;49.540;8.364;2023-07-13T03:12:50;0.90;;;0.90;;
12519;SDS011;6325;49.540;8.364;2023-07-13T03:15:17;1.25;;;1.15;;
12519;SDS011;6325;49.540;8.364;2023-07-13T03:17:44;1.30;;;1.20;;
12519;SDS011;6325;49.540;8.364;2023-07-13T03:20:12;1.20;;;1.10;;
12519;SDS011;6325;49.540;8.364;2023-07-13T03:22:41;1.10;;;1.10;;
12519;SDS011;6325;49.540;8.364;2023-07-13T03:25:08;1.40;;;1.30;;
12519;SDS011;6325;49.540;8.364;2023-07-13T03:27:35;1.40;;;1.27;;
12519;SDS011;6325;49.540;8.364;2023-07-13T03:30:03;1.20;;;1.10;;
12519;SDS011;6325;49.540;8.364;2023-07-13T03:32:30;1.60;;;1.30;;
12519;SDS011;6325;49.540;8.364;2023-07-13T03:34:57;1.30;;;1.20;;
12519;SDS011;6325;49.540;8.364;2023-07-13T03:37:24;1.17;;;1.13;;
12519;SDS011;6325;49.540;8.364;2023-07-13T03:39:53;1.42;;;1.30;;
12519;SDS011;6325;49.540;8.364;2023-07-13T03:42:20;1.80;;;1.52;;
12519;SDS011;6325;49.540;8.364;2023-07-13T03:44:48;1.52;;;1.42;;
12519;SDS011;6325;49.540;8.364;2023-07-13T03:47:17;1.60;;;1.50;;
12519;SDS011;6325;49.540;8.364;2023-07-13T03:49:44;1.77;;;1.70;;
12519;SDS011;6325;49.540;8.364;2023-07-13T03:52:11;2.15;;;1.95;;
12519;SDS011;6325;49.540;8.364;2023-07-13T03:54:39;2.10;;;2.00;;
12519;SDS011;6325;49.540;8.364;2023-07-13T03:57:07;2.38;;;2.05;;
12519;SDS011;6325;49.540;8.364;2023-07-13T03:59:35;2.10;;;2.00;;
12519;SDS011;6325;49.540;8.364;2023-07-13T04:02:02;1.90;;;1.80;;
12519;SDS011;6325;49.540;8.364;2023-07-13T04:04:30;2.42;;;2.22;;
12519;SDS011;6325;49.540;8.364;2023-07-13T04:06:57;1.90;;;1.80;;
12519;SDS011;6325;49.540;8.364;2023-07-13T04:09:24;1.90;;;1.80;;
12519;SDS011;6325;49.540;8.364;2023-07-13T04:11:51;2.05;;;1.90;;
12519;SDS011;6325;49.540;8.364;2023-07-13T04:14:20;2.17;;;2.08;;
12519;SDS011;6325;49.540;8.364;2023-07-13T04:16:47;2.47;;;2.27;;
12519;SDS011;6325;49.540;8.364;2023-07-13T04:19:14;2.30;;;2.10;;
12519;SDS011;6325;49.540;8.364;2023-07-13T04:21:41;2.33;;;2.13;;
12519;SDS011;6325;49.540;8.364;2023-07-13T04:24:08;2.10;;;2.00;;
12519;SDS011;6325;49.540;8.364;2023-07-13T04:26:36;2.20;;;2.10;;
12519;SDS011;6325;49.540;8.364;2023-07-13T04:29:03;2.00;;;1.90;;
12519;SDS011;6325;49.540;8.364;2023-07-13T04:31:32;2.03;;;1.92;;
12519;SDS011;6325;49.540;8.364;2023-07-13T04:33:59;2.08;;;1.98;;
12519;SDS011;6325;49.540;8.364;2023-07-13T04:36:27;1.92;;;1.80;;
12519;SDS011;6325;49.540;8.364;2023-07-13T04:38:56;2.30;;;2.20;;
12519;SDS011;6325;49.540;8.364;2023-07-13T04:41:23;2.38;;;2.17;;
12519;SDS011;6325;49.540;8.364;2023-07-13T04:43:50;2.30;;;2.10;;
12519;SDS011;6325;49.540;8.364;2023-07-13T04:46:18;1.90;;;1.80;;
12519;SDS011;6325;49.540;8.364;2023-07-13T04:48:46;2.25;;;2.15;;
12519;SDS011;6325;49.540;8.364;2023-07-13T04:51:16;2.05;;;1.95;;
12519;SDS011;6325;49.540;8.364;2023-07-13T04:53:43;2.20;;;2.10;;
12519;SDS011;6325;49.540;8.364;2023-07-13T04:56:10;2.28;;;2.17;;
12519;SDS011;6325;49.540;8.364;2023-07-13T04:58:37;2.22;;;2.03;;
12519;SDS011;6325;49.540;8.364;2023-07-13T05:01:05;2.60;;;2.40;;
12519;SDS011;6325;49.540;8.364;2023-07-13T05:03:33;2.65;;;2.45;;
12519;SDS011;6325;49.540;8.364;2023-07-13T05:06:03;2.53;;;2.42;;
12519;SDS011;6325;49.540;8.364;2023-07-13T05:08:31;2.60;;;2.45;;
12519;SDS011;6325;49.540;8.364;2023-07-13T05:10:59;2.70;;;2.50;;
12519;SDS011;6325;49.540;8.364;2023-07-13T05:13:26;2.80;;;2.60;;
12519;SDS011;6325;49.540;8.364;2023-07-13T05:15:57;3.10;;;2.80;;
12519;SDS011;6325;49.540;8.364;2023-07-13T05:18:24;2.85;;;2.65;;
12519;SDS011;6325;49.540;8.364;2023-07-13T05:20:57;3.58;;;2.78;;
12519;SDS011;6325;49.540;8.364;2023-07-13T05:23:25;4.20;;;3.15;;
12519;SDS011;6325;49.540;8.364;2023-07-13T05:25:53;5.65;;;3.50;;
12519;SDS011;6325;49.540;8.364;2023-07-13T05:28:20;4.43;;;3.20;;
12519;SDS011;6325;49.540;8.364;2023-07-13T05:30:47;4.15;;;3.30;;
12519;SDS011;6325;49.540;8.364;2023-07-13T05:33:15;3.60;;;3.20;;
12519;SDS011;6325;49.540;8.364;2023-07-13T05:35:42;3.20;;;2.90;;
12519;SDS011;6325;49.540;8.364;2023-07-13T05:38:09;3.22;;;2.90;;
12519;SDS011;6325;49.540;8.364;2023-07-13T05:40:38;5.13;;;3.10;;
12519;SDS011;6325;49.540;8.364;2023-07-13T05:43:05;4.00;;;3.03;;
12519;SDS011;6325;49.540;8.364;2023-07-13T05:45:33;3.00;;;2.80;;
12519;SDS011;6325;49.540;8.364;2023-07-13T05:48:00;3.20;;;2.90;;
12519;SDS011;6325;49.540;8.364;2023-07-13T05:50:27;3.35;;;2.80;;
12519;SDS011;6325;49.540;8.364;2023-07-13T05:52:54;3.80;;;2.70;;
12519;SDS011;6325;49.540;8.364;2023-07-13T05:55:21;3.13;;;2.80;;
12519;SDS011;6325;49.540;8.364;2023-07-13T05:57:50;2.78;;;2.58;;
12519;SDS011;6325;49.540;8.364;2023-07-13T06:00:17;2.80;;;2.60;;
12519;SDS011;6325;49.540;8.364;2023-07-13T06:02:44;2.80;;;2.60;;
12519;SDS011;6325;49.540;8.364;2023-07-13T06:05:12;2.60;;;2.20;;
12519;SDS011;6325;49.540;8.364;2023-07-13T06:07:39;2.60;;;2.35;;
12519;SDS011;6325;49.540;8.364;2023-07-13T06:10:06;3.30;;;2.50;;
12519;SDS011;6325;49.540;8.364;2023-07-13T06:12:33;2.75;;;2.47;;
12519;SDS011;6325;49.540;8.364;2023-07-13T06:15:02;2.30;;;2.10;;
12519;SDS011;6325;49.540;8.364;2023-07-13T06:17:29;2.28;;;2.08;;
12519;SDS011;6325;49.540;8.364;2023-07-13T06:19:56;2.75;;;2.05;;
12519;SDS011;6325;49.540;8.364;2023-07-13T06:22:23;2.25;;;2.05;;
12519;SDS011;6325;49.540;8.364;2023-07-13T06:24:51;2.20;;;2.03;;
12519;SDS011;6325;49.540;8.364;2023-07-13T06:27:18;2.50;;;2.20;;
12519;SDS011;6325;49.540;8.364;2023-07-13T06:29:45;3.08;;;2.30;;
12519;SDS011;6325;49.540;8.364;2023-07-13T06:32:14;2.03;;;1.92;;
12519;SDS011;6325;49.540;8.364;2023-07-13T06:34:41;2.22;;;1.90;;
12519;SDS011;6325;49.540;8.364;2023-07-13T06:37:08;2.60;;;1.85;;
12519;SDS011;6325;49.540;8.364;2023-07-13T06:39:35;4.20;;;2.70;;
12519;SDS011;6325;49.540;8.364;2023-07-13T06:42:03;2.85;;;2.53;;
12519;SDS011;6325;49.540;8.364;2023-07-13T06:44:30;2.27;;;1.80;;
12519;SDS011;6325;49.540;8.364;2023-07-13T06:46:57;2.30;;;1.75;;
12519;SDS011;6325;49.540;8.364;2023-07-13T06:49:25;1.75;;;1.50;;
12519;SDS011;6325;49.540;8.364;2023-07-13T06:51:52;1.98;;;1.40;;
12519;SDS011;6325;49.540;8.364;2023-07-13T06:54:20;1.40;;;1.13;;
12519;SDS011;6325;49.540;8.364;2023-07-13T06:56:48;1.27;;;1.10;;
12519;SDS011;6325;49.540;8.364;2023-07-13T06:59:15;2.78;;;1.88;;
12519;SDS011;6325;49.540;8.364;2023-07-13T07:01:42;2.30;;;1.55;;
12519;SDS011;6325;49.540;8.364;2023-07-13T07:04:09;2.88;;;2.15;;
12519;SDS011;6325;49.540;8.364;2023-07-13T07:06:38;1.58;;;1.48;;
12519;SDS011;6325;49.540;8.364;2023-07-13T07:09:05;1.40;;;1.17;;
12519;SDS011;6325;49.540;8.364;2023-07-13T07:11:32;2.38;;;1.50;;
12519;SDS011;6325;49.540;8.364;2023-07-13T07:13:59;1.40;;;1.30;;
12519;SDS011;6325;49.540;8.364;2023-07-13T07:16:26;1.45;;;1.33;;
12519;SDS011;6325;49.540;8.364;2023-07-13T07:18:53;2.13;;;1.50;;
12519;SDS011;6325;49.540;8.364;2023-07-13T07:21:20;2.53;;;1.75;;
12519;SDS011;6325;49.540;8.364;2023-07-13T07:23:51;1.42;;;1.30;;
12519;SDS011;6325;49.540;8.364;2023-07-13T07:26:19;2.15;;;1.30;;
12519;SDS011;6325;49.540;8.364;2023-07-13T07:28:46;2.08;;;1.60;;
12519;SDS011;6325;49.540;8.364;2023-07-13T07:31:13;1.30;;;1.20;;
12519;SDS011;6325;49.540;8.364;2023-07-13T07:33:40;1.73;;;1.27;;
12519;SDS011;6325;49.540;8.364;2023-07-13T07:36:08;1.40;;;1.30;;
12519;SDS011;6325;49.540;8.364;2023-07-13T07:38:35;2.67;;;1.70;;
12519;SDS011;6325;49.540;8.364;2023-07-13T07:41:04;2.15;;;1.60;;
12519;SDS011;6325;49.540;8.364;2023-07-13T07:43:31;1.77;;;1.40;;
12519;SDS011;6325;49.540;8.364;2023-07-13T07:45:58;2.38;;;1.75;;
12519;SDS011;6325;49.540;8.364;2023-07-13T07:48:26;1.43;;;1.33;;
12519;SDS011;6325;49.540;8.364;2023-07-13T07:50:53;1.88;;;1.50;;
12519;SDS011;6325;49.540;8.364;2023-07-13T07:53:20;1.30;;;1.10;;
12519;SDS011;6325;49.540;8.364;2023-07-13T07:55:47;5.97;;;3.17;;
12519;SDS011;6325;49.540;8.364;2023-07-13T07:58:16;2.15;;;1.50;;
12519;SDS011;6325;49.540;8.364;2023-07-13T08:00:43;2.43;;;1.90;;
12519;SDS011;6325;49.540;8.364;2023-07-13T08:03:10;2.05;;;1.52;;
12519;SDS011;6325;49.540;8.364;2023-07-13T08:05:37;2.55;;;1.65;;
12519;SDS011;6325;49.540;8.364;2023-07-13T08:08:04;1.57;;;1.20;;
12519;SDS011;6325;49.540;8.364;2023-07-13T08:10:32;2.40;;;1.80;;
12519;SDS011;6325;49.540;8.364;2023-07-13T08:13:01;3.00;;;2.10;;
12519;SDS011;6325;49.540;8.364;2023-07-13T08:15:30;3.25;;;2.03;;
12519;SDS011;6325;49.540;8.364;2023-07-13T08:17:57;3.00;;;2.38;;
12519;SDS011;6325;49.540;8.364;2023-07-13T08:20:24;3.13;;;1.88;;
12519;SDS011;6325;49.540;8.364;2023-07-13T08:22:51;2.22;;;1.60;;
12519;SDS011;6325;49.540;8.364;2023-07-13T08:25:18;3.93;;;2.90;;
12519;SDS011;6325;49.540;8.364;2023-07-13T08:27:47;6.30;;;3.22;;
12519;SDS011;6325;49.540;8.364;2023-07-13T08:30:14;6.70;;;3.80;;
12519;SDS011;6325;49.540;8.364;2023-07-13T08:32:44;3.35;;;2.00;;
12519;SDS011;6325;49.540;8.364;2023-07-13T08:35:11;4.78;;;3.13;;
12519;SDS011;6325;49.540;8.364;2023-07-13T08:37:39;2.60;;;2.33;;
12519;SDS011;6325;49.540;8.364;2023-07-13T08:40:07;1.90;;;1.40;;
12519;SDS011;6325;49.540;8.364;2023-07-13T08:42:36;1.50;;;1.30;;
12519;SDS011;6325;49.540;8.364;2023-07-13T08:45:07;1.57;;;1.47;;
12519;SDS011;6325;49.540;8.364;2023-07-13T08:47:36;3.97;;;2.72;;
12519;SDS011;6325;49.540;8.364;2023-07-13T08:50:08;4.65;;;3.40;;
12519;SDS011;6325;49.540;8.364;2023-07-13T08:52:38;3.72;;;2.60;;
12519;SDS011;6325;49.540;8.364;2023-07-13T08:55:13;2.53;;;1.85;;
12519;SDS011;6325;49.540;8.364;2023-07-13T08:57:40;1.27;;;1.17;;
12519;SDS011;6325;49.540;8.364;2023-07-13T09:00:09;7.22;;;4.60;;
12519;SDS011;6325;49.540;8.364;2023-07-13T09:02:39;3.50;;;2.17;;
12519;SDS011;6325;49.540;8.364;2023-07-13T09:05:10;2.55;;;1.50;;
12519;SDS011;6325;49.540;8.364;2023-07-13T09:07:41;1.58;;;1.10;;
12519;SDS011;6325;49.540;8.364;2023-07-13T09:10:14;4.27;;;2.40;;
12519;SDS011;6325;49.540;8.364;2023-07-13T09:12:45;4.67;;;2.83;;
12519;SDS011;6325;49.540;8.364;2023-07-13T09:15:21;3.92;;;2.58;;
12519;SDS011;6325;49.540;8.364;2023-07-13T09:17:51;4.45;;;3.00;;
12519;SDS011;6325;49.540;8.364;2023-07-13T09:20:23;6.85;;;4.10;;
12519;SDS011;6325;49.540;8.364;2023-07-13T09:22:52;3.40;;;2.80;;
12519;SDS011;6325;49.540;8.364;2023-07-13T09:25:22;3.92;;;2.53;;
12519;SDS011;6325;49.540;8.364;2023-07-13T09:27:50;4.22;;;3.05;;
12519;SDS011;6325;49.540;8.364;2023-07-13T09:30:24;3.23;;;2.40;;
12519;SDS011;6325;49.540;8.364;2023-07-13T09:32:52;2.77;;;1.83;;
12519;SDS011;6325;49.540;8.364;2023-07-13T09:35:23;5.15;;;3.63;;
12519;SDS011;6325;49.540;8.364;2023-07-13T09:37:55;3.35;;;2.60;;
12519;SDS011;6325;49.540;8.364;2023-07-13T09:40:24;2.42;;;1.58;;
12519;SDS011;6325;49.540;8.364;2023-07-13T09:42:54;4.38;;;3.00;;
12519;SDS011;6325;49.540;8.364;2023-07-13T09:45:26;1.50;;;1.10;;
12519;SDS011;6325;49.540;8.364;2023-07-13T09:47:58;1.53;;;1.10;;
12519;SDS011;6325;49.540;8.364;2023-07-13T09:50:27;1.30;;;1.20;;
12519;SDS011;6325;49.540;8.364;2023-07-13T09:52:54;2.17;;;1.55;;
12519;SDS011;6325;49.540;8.364;2023-07-13T09:55:24;2.15;;;1.70;;
12519;SDS011;6325;49.540;8.364;2023-07-13T09:57:52;1.30;;;1.20;;
12519;SDS011;6325;49.540;8.364;2023-07-13T10:00:20;1.77;;;1.20;;
12519;SDS011;6325;49.540;8.364;2023-07-13T10:02:49;3.40;;;2.08;;
12519;SDS011;6325;49.540;8.364;2023-07-13T10:05:24;1.88;;;1.00;;
12519;SDS011;6325;49.540;8.364;2023-07-13T10:07:53;2.10;;;1.80;;
12519;SDS011;6325;49.540;8.364;2023-07-13T10:10:23;1.55;;;1.35;;
12519;SDS011;6325;49.540;8.364;2023-07-13T10:12:50;1.20;;;1.10;;
12519;SDS011;6325;49.540;8.364;2023-07-13T10:15:18;3.58;;;2.33;;
12519;SDS011;6325;49.540;8.364;2023-07-13T10:17:46;6.30;;;4.07;;
12519;SDS011;6325;49.540;8.364;2023-07-13T10:20:13;7.60;;;4.57;;
12519;SDS011;6325;49.540;8.364;2023-07-13T10:22:42;7.28;;;4.72;;
12519;SDS011;6325;49.540;8.364;2023-07-13T10:25:17;6.40;;;4.15;;
12519;SDS011;6325;49.540;8.364;2023-07-13T10:27:45;1.98;;;1.23;;
12519;SDS011;6325;49.540;8.364;2023-07-13T10:30:13;3.95;;;2.67;;
12519;SDS011;6325;49.540;8.364;2023-07-13T10:32:42;2.47;;;1.90;;
12519;SDS011;6325;49.540;8.364;2023-07-13T10:35:09;3.90;;;2.65;;
12519;SDS011;6325;49.540;8.364;2023-07-13T10:37:40;3.78;;;2.55;;
12519;SDS011;6325;49.540;8.364;2023-07-13T10:40:12;4.53;;;2.97;;
12519;SDS011;6325;49.540;8.364;2023-07-13T10:42:42;6.22;;;3.92;;
12519;SDS011;6325;49.540;8.364;2023-07-13T10:45:12;4.68;;;3.30;;
12519;SDS011;6325;49.540;8.364;2023-07-13T10:47:40;1.20;;;1.10;;
12519;SDS011;6325;49.540;8.364;2023-07-13T10:50:08;4.23;;;2.63;;
12519;SDS011;6325;49.540;8.364;2023-07-13T10:52:42;1.55;;;1.45;;
12519;SDS011;6325;49.540;8.364;2023-07-13T10:57:52;1.52;;;1.13;;
12519;SDS011;6325;49.540;8.364;2023-07-13T11:00:20;1.50;;;1.02;;
12519;SDS011;6325;49.540;8.364;2023-07-13T11:02:55;1.45;;;1.27;;
12519;SDS011;6325;49.540;8.364;2023-07-13T11:05:26;8.48;;;5.10;;
12519;SDS011;6325;49.540;8.364;2023-07-13T11:07:55;3.65;;;2.17;;
12519;SDS011;6325;49.540;8.364;2023-07-13T11:15:54;1.55;;;1.40;;
12519;SDS011;6325;49.540;8.364;2023-07-13T11:18:22;4.70;;;2.92;;
12519;SDS011;6325;49.540;8.364;2023-07-13T11:20:50;6.72;;;3.55;;
12519;SDS011;6325;49.540;8.364;2023-07-13T11:23:19;6.33;;;3.83;;
12519;SDS011;6325;49.540;8.364;2023-07-13T11:25:47;4.07;;;2.83;;
12519;SDS011;6325;49.540;8.364;2023-07-13T11:28:21;5.40;;;3.60;;
12519;SDS011;6325;49.540;8.364;2023-07-13T11:30:50;4.30;;;3.17;;
12519;SDS011;6325;49.540;8.364;2023-07-13T11:36:13;3.20;;;2.53;;
12519;SDS011;6325;49.540;8.364;2023-07-13T11:38:41;5.22;;;3.70;;
12519;SDS011;6325;49.540;8.364;2023-07-13T11:41:13;3.83;;;2.70;;
12519;SDS011;6325;49.540;8.364;2023-07-13T11:43:41;6.88;;;4.40;;
12519;SDS011;6325;49.540;8.364;2023-07-13T11:46:12;7.18;;;4.32;;
12519;SDS011;6325;49.540;8.364;2023-07-13T11:48:40;5.23;;;3.53;;
12519;SDS011;6325;49.540;8.364;2023-07-13T11:51:07;7.65;;;4.55;;
12519;SDS011;6325;49.540;8.364;2023-07-13T11:53:43;8.73;;;4.80;;
12519;SDS011;6325;49.540;8.364;2023-07-13T11:56:11;5.20;;;3.77;;
12519;SDS011;6325;49.540;8.364;2023-07-13T11:58:39;1.40;;;1.20;;
12519;SDS011;6325;49.540;8.364;2023-07-13T12:01:06;1.50;;;1.40;;
12519;SDS011;6325;49.540;8.364;2023-07-13T12:03:37;1.40;;;1.30;;
12519;SDS011;6325;49.540;8.364;2023-07-13T12:06:17;4.18;;;2.90;;
12519;SDS011;6325;49.540;8.364;2023-07-13T12:08:49;4.90;;;3.58;;
12519;SDS011;6325;49.540;8.364;2023-07-13T12:11:17;7.47;;;5.15;;
12519;SDS011;6325;49.540;8.364;2023-07-13T12:13:46;3.97;;;2.78;;
12519;SDS011;6325;49.540;8.364;2023-07-13T12:16:15;8.02;;;5.05;;
12519;SDS011;6325;49.540;8.364;2023-07-13T12:18:42;1.48;;;1.20;;
12519;SDS011;6325;49.540;8.364;2023-07-13T12:21:12;1.75;;;1.30;;
12519;SDS011;6325;49.540;8.364;2023-07-13T12:23:42;3.67;;;2.80;;
12519;SDS011;6325;49.540;8.364;2023-07-13T12:26:11;6.15;;;4.07;;
12519;SDS011;6325;49.540;8.364;2023-07-13T12:28:43;5.25;;;3.58;;
12519;SDS011;6325;49.540;8.364;2023-07-13T12:31:19;3.20;;;2.63;;
12519;SDS011;6325;49.540;8.364;2023-07-13T12:33:55;5.57;;;3.67;;
12519;SDS011;6325;49.540;8.364;2023-07-13T12:36:23;5.35;;;3.40;;
12519;SDS011;6325;49.540;8.364;2023-07-13T12:38:50;7.72;;;5.30;;
12519;SDS011;6325;49.540;8.364;2023-07-13T12:41:19;4.68;;;3.10;;
12519;SDS011;6325;49.540;8.364;2023-07-13T12:43:48;5.70;;;3.88;;
12519;SDS011;6325;49.540;8.364;2023-07-13T12:46:17;9.18;;;5.60;;
12519;SDS011;6325;49.540;8.364;2023-07-13T12:48:47;4.60;;;3.20;;
12519;SDS011;6325;49.540;8.364;2023-07-13T12:51:14;1.40;;;1.30;;
12519;SDS011;6325;49.540;8.364;2023-07-13T12:53:46;2.55;;;1.70;;
12519;SDS011;6325;49.540;8.364;2023-07-13T12:56:15;2.03;;;1.30;;
12519;SDS011;6325;49.540;8.364;2023-07-13T12:58:45;5.53;;;3.65;;
12519;SDS011;6325;49.540;8.364;2023-07-13T13:01:19;4.95;;;3.65;;
12519;SDS011;6325;49.540;8.364;2023-07-13T13:03:47;13.95;;;7.68;;
12519;SDS011;6325;49.540;8.364;2023-07-13T13:06:21;1.98;;;1.52;;
12519;SDS011;6325;49.540;8.364;2023-07-13T13:08:50;5.03;;;2.50;;
12519;SDS011;6325;49.540;8.364;2023-07-13T13:11:18;4.13;;;2.83;;
12519;SDS011;6325;49.540;8.364;2023-07-13T13:13:46;6.95;;;4.57;;
12519;SDS011;6325;49.540;8.364;2023-07-13T13:16:29;3.78;;;2.70;;
12519;SDS011;6325;49.540;8.364;2023-07-13T13:18:59;4.68;;;3.00;;
12519;SDS011;6325;49.540;8.364;2023-07-13T13:21:27;5.90;;;3.27;;
12519;SDS011;6325;49.540;8.364;2023-07-13T13:23:54;7.20;;;4.82;;
12519;SDS011;6325;49.540;8.364;2023-07-13T13:26:23;2.70;;;1.83;;
12519;SDS011;6325;49.540;8.364;2023-07-13T13:28:52;1.98;;;1.40;;
12519;SDS011;6325;49.540;8.364;2023-07-13T13:31:19;4.80;;;3.47;;
12519;SDS011;6325;49.540;8.364;2023-07-13T13:33:46;6.20;;;3.78;;
12519;SDS011;6325;49.540;8.364;2023-07-13T13:36:15;8.17;;;5.27;;
12519;SDS011;6325;49.540;8.364;2023-07-13T13:38:43;5.53;;;3.63;;
12519;SDS011;6325;49.540;8.364;2023-07-13T13:41:11;9.70;;;6.03;;
12519;SDS011;6325;49.540;8.364;2023-07-13T13:43:38;6.22;;;4.43;;
12519;SDS011;6325;49.540;8.364;2023-07-13T13:46:11;7.68;;;4.97;;
12519;SDS011;6325;49.540;8.364;2023-07-13T13:48:40;6.78;;;4.47;;
12519;SDS011;6325;49.540;8.364;2023-07-13T13:51:11;5.40;;;3.65;;
12519;SDS011;6325;49.540;8.364;2023-07-13T13:53:39;8.10;;;4.93;;
12519;SDS011;6325;49.540;8.364;2023-07-13T13:56:07;5.05;;;2.85;;
12519;SDS011;6325;49.540;8.364;2023-07-13T13:58:35;3.53;;;2.33;;
12519;SDS011;6325;49.540;8.364;2023-07-13T14:01:02;3.00;;;2.10;;
12519;SDS011;6325;49.540;8.364;2023-07-13T14:03:34;7.30;;;4.30;;
12519;SDS011;6325;49.540;8.364;2023-07-13T14:06:01;5.93;;;4.32;;
12519;SDS011;6325;49.540;8.364;2023-07-13T14:08:28;1.58;;;1.33;;
12519;SDS011;6325;49.540;8.364;2023-07-13T14:10:56;5.05;;;3.45;;
12519;SDS011;6325;49.540;8.364;2023-07-13T14:13:25;5.97;;;4.03;;
12519;SDS011;6325;49.540;8.364;2023-07-13T14:15:53;2.38;;;2.00;;
12519;SDS011;6325;49.540;8.364;2023-07-13T14:18:21;1.02;;;1.00;;
12519;SDS011;6325;49.540;8.364;2023-07-13T14:20:50;1.65;;;1.55;;
12519;SDS011;6325;49.540;8.364;2023-07-13T14:23:18;1.50;;;1.40;;
12519;SDS011;6325;49.540;8.364;2023-07-13T14:25:45;5.47;;;3.45;;
12519;SDS011;6325;49.540;8.364;2023-07-13T14:28:19;1.50;;;1.40;;
12519;SDS011;6325;49.540;8.364;2023-07-13T14:30:46;1.25;;;1.15;;
12519;SDS011;6325;49.540;8.364;2023-07-13T14:33:13;1.30;;;1.15;;
12519;SDS011;6325;49.540;8.364;2023-07-13T14:35:41;1.30;;;1.20;;
12519;SDS011;6325;49.540;8.364;2023-07-13T14:38:10;1.50;;;1.10;;
12519;SDS011;6325;49.540;8.364;2023-07-13T14:40:39;1.42;;;1.33;;
12519;SDS011;6325;49.540;8.364;2023-07-13T14:43:09;1.10;;;1.00;;
12519;SDS011;6325;49.540;8.364;2023-07-13T14:45:37;4.28;;;3.22;;
12519;SDS011;6325;49.540;8.364;2023-07-13T14:48:08;5.63;;;4.00;;
12519;SDS011;6325;49.540;8.364;2023-07-13T14:50:37;1.70;;;1.50;;
12519;SDS011;6325;49.540;8.364;2023-07-13T14:53:05;2.97;;;2.45;;
12519;SDS011;6325;49.540;8.364;2023-07-13T14:55:33;3.95;;;2.75;;
12519;SDS011;6325;49.540;8.364;2023-07-13T14:58:00;1.93;;;1.50;;
12519;SDS011;6325;49.540;8.364;2023-07-13T15:00:28;1.88;;;1.70;;
12519;SDS011;6325;49.540;8.364;2023-07-13T15:02:56;1.10;;;1.00;;
12519;SDS011;6325;49.540;8.364;2023-07-13T15:05:25;1.10;;;1.10;;
12519;SDS011;6325;49.540;8.364;2023-07-13T15:07:56;1.33;;;1.00;;
12519;SDS011;6325;49.540;8.364;2023-07-13T15:10:24;0.90;;;0.90;;
12519;SDS011;6325;49.540;8.364;2023-07-13T15:12:53;1.27;;;1.00;;
12519;SDS011;6325;49.540;8.364;2023-07-13T15:15:20;1.10;;;1.10;;
12519;SDS011;6325;49.540;8.364;2023-07-13T15:17:47;1.90;;;1.20;;